Time;durP1;ratioP1;P1;durP2;ratioP2;P2;SDS_P1;SDS_P2;PMS_P1;PMS_P2;Temp;Humidity;BMP_temperature;BMP_pressure;BME280_temperature;BME280_humidity;BME280_pressure;Samples;Min_cycle;Max_cycle;Signal;HPM_P1;HPM_P2
2021/10/22 00:01:00;;;;;;;14.05;7.03;;;;;;;11.90;93.37;97494.88;5080246;28;20023;-86
2021/10/22 00:03:26;;;;;;;9.65;6.47;;;;;;;12.06;92.84;97487.50;5079776;28;20031;-87
2021/10/22 00:05:52;;;;;;;11.23;6.80;;;;;;;11.98;92.84;97487.16;5071203;28;20040;-86
2021/10/22 00:08:17;;;;;;;12.73;6.30;;;;;;;12.07;91.75;97483.84;5077909;28;20088;-87
2021/10/22 00:10:43;;;;;;;10.63;6.82;;;;;;;12.03;92.92;97481.50;5096585;28;20096;-87
2021/10/22 00:13:09;;;;;;;11.95;7.20;;;;;;;11.99;93.62;97485.34;5079580;28;20107;-86
2021/10/22 00:15:35;;;;;;;8.65;6.00;;;;;;;11.99;92.06;97486.22;5079517;28;20082;-86
2021/10/22 00:18:01;;;;;;;10.80;6.82;;;;;;;11.95;92.70;97480.19;5071296;28;20039;-85
2021/10/22 00:20:26;;;;;;;12.48;7.35;;;;;;;12.02;93.48;97479.78;5063440;28;20055;-85
2021/10/22 00:22:52;;;;;;;10.65;6.20;;;;;;;12.10;90.69;97466.69;5079688;28;20486;-85
2021/10/22 00:25:19;;;;;;;9.13;6.22;;;;;;;12.26;89.30;97478.06;5079538;28;20409;-86
2021/10/22 00:27:46;;;;;;;9.52;6.68;;;;;;;12.37;88.06;97470.13;5073248;28;20032;-86
2021/10/22 00:30:11;;;;;;;14.90;6.78;;;;;;;12.41;89.69;97453.72;5058737;28;20034;-87
2021/10/22 00:32:37;;;;;;;10.50;6.93;;;;;;;12.37;88.82;97470.97;5059122;28;20024;-85
2021/10/22 00:35:04;;;;;;;10.50;5.43;;;;;;;12.42;86.97;97457.25;5059074;28;20035;-85
2021/10/22 00:37:29;;;;;;;8.02;5.70;;;;;;;12.52;86.55;97459.16;5075638;28;20019;-85
2021/10/22 00:39:55;;;;;;;9.43;6.50;;;;;;;12.59;86.09;97458.72;5074870;28;20555;-87
2021/10/22 00:42:24;;;;;;;11.45;5.95;;;;;;;12.55;85.99;97454.56;5079346;28;20015;-85
2021/10/22 00:44:51;;;;;;;10.35;6.30;;;;;;;12.60;87.04;97457.78;5078777;28;20081;-85
2021/10/22 00:47:17;;;;;;;10.38;6.10;;;;;;;12.53;87.15;97454.66;5078907;28;20077;-85
2021/10/22 00:49:45;;;;;;;13.88;6.35;;;;;;;12.51;87.26;97467.34;5079457;28;20380;-86
2021/10/22 00:52:11;;;;;;;12.98;6.25;;;;;;;12.38;88.76;97456.63;5079375;28;20084;-86
2021/10/22 00:54:37;;;;;;;15.20;6.45;;;;;;;12.33;88.19;97463.28;5060010;28;20028;-85
2021/10/22 00:57:02;;;;;;;11.90;7.10;;;;;;;12.13;88.12;97472.69;5060143;28;20447;-85
2021/10/22 00:59:29;;;;;;;12.85;6.97;;;;;;;11.75;91.07;97466.44;5058629;28;20069;-85
2021/10/22 01:01:55;;;;;;;11.35;7.18;;;;;;;11.72;91.61;97483.56;5059478;28;20030;-86
2021/10/22 01:04:21;;;;;;;11.70;6.80;;;;;;;11.56;93.40;97487.38;5070191;28;20043;-86
2021/10/22 01:06:46;;;;;;;12.48;7.03;;;;;;;11.40;94.96;97480.34;5078826;28;20089;-85
2021/10/22 01:09:12;;;;;;;12.20;7.32;;;;;;;11.32;95.39;97489.84;5078809;28;20054;-85
2021/10/22 01:11:39;;;;;;;11.65;7.30;;;;;;;11.21;96.87;97481.66;5078097;28;20589;-86
2021/10/22 01:14:06;;;;;;;10.32;7.22;;;;;;;11.05;97.73;97488.94;5078709;28;20043;-86
2021/10/22 01:16:31;;;;;;;11.85;7.47;;;;;;;10.93;99.30;97469.19;5070006;28;20466;-86
2021/10/22 01:18:57;;;;;;;11.77;6.88;;;;;;;10.88;100.00;97468.66;5058734;28;20107;-86
2021/10/22 01:21:23;;;;;;;13.60;7.13;;;;;;;10.99;100.00;97478.66;5066787;28;20036;-87
2021/10/22 01:23:50;;;;;;;11.43;7.45;;;;;;;10.88;100.00;97474.88;5059389;28;20024;-86
2021/10/22 01:26:20;;;;;;;10.85;7.28;;;;;;;10.97;100.00;97476.09;5075804;28;20027;-86
2021/10/22 01:28:45;;;;;;;16.02;7.22;;;;;;;10.80;100.00;97487.00;5078851;28;20410;-85
2021/10/22 01:31:11;;;;;;;11.63;6.85;;;;;;;10.62;100.00;97488.16;5078226;28;20027;-85
2021/10/22 01:33:38;;;;;;;13.90;7.22;;;;;;;10.83;100.00;97489.47;5077806;28;20031;-85
2021/10/22 01:36:04;;;;;;;14.15;7.68;;;;;;;10.65;100.00;97459.41;5079245;28;20028;-86
2021/10/22 01:38:30;;;;;;;16.35;8.30;;;;;;;10.71;100.00;97480.41;5077948;28;20030;-86
2021/10/22 01:40:57;;;;;;;12.27;7.57;;;;;;;10.55;100.00;97476.16;5078604;28;20024;-85
2021/10/22 01:43:25;;;;;;;13.50;8.00;;;;;;;10.68;100.00;97475.25;5078653;28;20043;-85
2021/10/22 01:45:51;;;;;;;11.95;8.13;;;;;;;10.48;100.00;97464.13;5078072;28;20031;-86
2021/10/22 01:48:17;;;;;;;15.40;8.10;;;;;;;10.51;100.00;97485.31;5094991;28;20042;-85
2021/10/22 01:50:43;;;;;;;10.68;7.00;;;;;;;10.53;100.00;97494.97;5095224;28;20122;-87
2021/10/22 01:53:10;;;;;;;14.45;7.03;;;;;;;10.50;100.00;97483.59;5078457;28;20046;-87
2021/10/22 01:55:35;;;;;;;11.75;6.90;;;;;;;10.70;100.00;97477.84;5078754;28;20047;-86
2021/10/22 01:58:02;;;;;;;11.93;5.90;;;;;;;11.13;100.00;97495.56;5095702;28;20442;-85
2021/10/22 02:00:29;;;;;;;13.43;7.57;;;;;;;11.10;100.00;97478.84;5071523;28;20032;-86
2021/10/22 02:02:55;;;;;;;11.48;7.50;;;;;;;11.03;100.00;97470.34;5071035;28;20042;-86
2021/10/22 02:05:21;;;;;;;10.52;6.70;;;;;;;11.27;100.00;97503.53;5077998;28;20047;-86
2021/10/22 02:07:46;;;;;;;10.80;6.00;;;;;;;11.32;99.62;97505.94;5068360;28;20032;-85
2021/10/22 02:10:13;;;;;;;10.68;6.45;;;;;;;11.27;99.50;97491.97;5075183;28;20032;-86
2021/10/22 02:12:38;;;;;;;12.73;7.35;;;;;;;11.14;99.83;97485.69;5062507;28;20056;-86
2021/10/22 02:15:05;;;;;;;11.30;7.30;;;;;;;11.14;100.00;97483.00;5081155;28;20020;-86
2021/10/22 02:17:31;;;;;;;13.23;8.77;;;;;;;11.04;100.00;97490.81;5081823;28;20034;-85
2021/10/22 02:19:57;;;;;;;12.50;7.38;;;;;;;11.11;100.00;97481.38;5081517;28;20069;-86
2021/10/22 02:22:23;;;;;;;10.85;6.72;;;;;;;11.19;100.00;97500.50;5082045;28;20023;-86
2021/10/22 02:25:00;;;;;;;11.02;7.38;;;;;;;11.17;100.00;97489.03;5078115;28;20525;-85
2021/10/22 02:27:25;;;;;;;12.98;8.40;;;;;;;11.44;96.13;97468.44;5062479;28;20499;-86
2021/10/22 02:29:51;;;;;;;12.90;8.27;;;;;;;11.80;94.23;97491.97;5081863;28;20035;-86
2021/10/22 02:32:17;;;;;;;13.50;8.68;;;;;;;11.88;94.02;97504.84;5093622;28;20485;-86
2021/10/22 02:34:42;;;;;;;21.73;9.82;;;;;;;11.82;92.16;97489.16;5060940;28;20051;-85
2021/10/22 02:37:08;;;;;;;38.92;11.30;;;;;;;12.04;93.81;97504.66;5074542;28;20380;-85
2021/10/22 02:39:35;;;;;;;21.02;10.63;;;;;;;11.89;93.38;97498.50;5072733;28;20031;-85
2021/10/22 02:42:01;;;;;;;16.77;9.43;;;;;;;11.95;91.22;97503.47;5081502;28;20520;-86
2021/10/22 02:44:27;;;;;;;20.85;10.23;;;;;;;11.94;92.81;97521.34;5081384;28;20031;-85
2021/10/22 02:46:53;;;;;;;22.52;11.13;;;;;;;11.66;94.18;97494.66;5080726;28;20413;-85
2021/10/22 02:49:19;;;;;;;29.98;10.45;;;;;;;11.65;94.56;97503.69;5081001;28;20042;-86
2021/10/22 02:51:47;;;;;;;16.45;8.75;;;;;;;11.61;94.54;97514.69;5081087;28;20031;-85
2021/10/22 02:54:13;;;;;;;18.55;8.40;;;;;;;11.58;95.44;97533.66;5081612;28;20038;-85
2021/10/22 02:56:39;;;;;;;18.48;8.98;;;;;;;11.33;97.26;97531.72;5081043;28;20032;-86
2021/10/22 02:59:04;;;;;;;13.75;8.35;;;;;;;11.19;99.30;97521.94;5098193;28;20058;-85
2021/10/22 03:01:30;;;;;;;14.48;8.80;;;;;;;11.13;100.00;97533.03;5070218;28;20036;-85
2021/10/22 03:03:56;;;;;;;20.58;9.02;;;;;;;11.01;100.00;97528.47;5061273;28;20042;-85
2021/10/22 03:06:21;;;;;;;15.52;9.23;;;;;;;11.02;100.00;97543.56;5064558;28;20054;-87
2021/10/22 03:08:47;;;;;;;16.33;9.05;;;;;;;11.00;100.00;97536.56;5073122;28;20042;-85
2021/10/22 03:11:13;;;;;;;21.73;9.68;;;;;;;10.88;100.00;97549.78;5060756;28;20028;-86
2021/10/22 03:13:38;;;;;;;17.05;8.88;;;;;;;10.74;100.00;97540.91;5078158;28;20030;-85
2021/10/22 03:16:04;;;;;;;18.50;9.07;;;;;;;10.66;100.00;97545.88;5072530;28;20127;-86
2021/10/22 03:18:30;;;;;;;15.15;8.63;;;;;;;10.74;100.00;97546.25;5082250;28;20494;-85
2021/10/22 03:20:55;;;;;;;19.65;9.95;;;;;;;10.64;100.00;97537.09;5064091;28;20027;-86
2021/10/22 03:23:21;;;;;;;18.85;9.68;;;;;;;10.60;100.00;97541.78;5080233;28;20512;-85
2021/10/22 03:25:47;;;;;;;24.00;10.38;;;;;;;10.48;100.00;97549.69;5081466;28;20406;-86
2021/10/22 03:28:13;;;;;;;14.35;7.90;;;;;;;10.54;100.00;97530.59;5072178;28;20108;-86
2021/10/22 03:30:40;;;;;;;15.95;8.40;;;;;;;10.67;100.00;97539.56;5064053;28;20065;-86
2021/10/22 03:33:06;;;;;;;11.82;7.13;;;;;;;10.71;100.00;97544.63;5073862;28;20016;-86
2021/10/22 03:35:32;;;;;;;17.75;7.80;;;;;;;10.83;100.00;97551.88;5057409;28;20035;-85
2021/10/22 03:37:58;;;;;;;15.13;8.10;;;;;;;10.94;100.00;97543.19;5078724;28;20034;-86
2021/10/22 03:40:23;;;;;;;11.55;6.68;;;;;;;10.95;98.05;97523.47;5074441;28;20051;-86
2021/10/22 03:42:56;;;;;;;12.00;5.97;;;;;;;11.27;96.11;97535.66;5078447;28;20084;-85
2021/10/22 03:45:25;;;;;;;31.38;11.32;;;;;;;11.06;98.55;97533.50;5080815;28;20066;-86
2021/10/22 03:47:50;;;;;;;12.57;6.80;;;;;;;11.16;96.08;97543.53;5066247;28;20027;-86
2021/10/22 03:50:19;;;;;;;15.20;8.75;;;;;;;11.27;96.18;97533.00;5060242;28;20035;-86
2021/10/22 03:52:49;;;;;;;11.32;6.10;;;;;;;11.29;95.25;97539.09;5061570;28;20047;-87
2021/10/22 03:55:15;;;;;;;12.75;7.28;;;;;;;11.15;96.71;97528.44;5061523;28;20024;-86
2021/10/22 03:57:42;;;;;;;28.35;9.00;;;;;;;11.15;96.49;97520.41;5060034;28;20059;-85
2021/10/22 04:00:08;;;;;;;40.88;12.90;;;;;;;11.17;97.78;97522.97;5079139;28;20058;-86
2021/10/22 04:02:34;;;;;;;12.80;6.75;;;;;;;11.11;96.66;97518.88;5079533;28;20027;-86
2021/10/22 04:05:05;;;;;;;16.80;6.28;;;;;;;11.29;93.90;97527.50;5078259;28;20047;-86
2021/10/22 04:07:31;;;;;;;9.82;6.00;;;;;;;11.60;91.42;97531.72;5060502;28;20028;-86
2021/10/22 04:09:56;;;;;;;18.45;6.60;;;;;;;11.56;91.70;97524.88;5060085;28;20028;-86
2021/10/22 04:12:22;;;;;;;16.17;6.55;;;;;;;11.66;90.40;97542.88;5059849;28;20475;-86
2021/10/22 04:14:48;;;;;;;13.30;6.53;;;;;;;11.64;90.53;97528.75;5063970;28;20065;-86
2021/10/22 04:17:13;;;;;;;15.25;5.78;;;;;;;11.79;88.83;97537.59;5065057;28;20181;-86
2021/10/22 04:19:41;;;;;;;8.38;6.03;;;;;;;11.78;90.40;97531.38;5076135;28;20027;-82
2021/10/22 04:22:08;;;;;;;12.57;5.93;;;;;;;11.80;87.43;97517.91;5089300;28;20063;-86
2021/10/22 04:24:33;;;;;;;10.82;6.72;;;;;;;11.89;88.41;97528.00;5077907;28;20039;-86
2021/10/22 04:26:59;;;;;;;12.40;6.75;;;;;;;11.72;89.47;97514.88;5081227;28;20426;-87
2021/10/22 04:29:25;;;;;;;19.55;8.88;;;;;;;11.74;89.89;97534.41;5079409;28;20119;-88
2021/10/22 04:31:50;;;;;;;29.83;11.23;;;;;;;11.63;91.60;97534.22;5097900;28;20486;-87
2021/10/22 04:34:16;;;;;;;35.35;12.52;;;;;;;11.40;93.30;97525.88;5080601;28;20024;-88
2021/10/22 04:36:42;;;;;;;28.73;12.35;;;;;;;11.34;94.16;97537.00;5080357;28;20468;-86
2021/10/22 04:42:07;;;;;;;27.90;14.63;;;;;;;10.96;97.26;97510.97;5104587;28;20034;-88
2021/10/22 04:45:05;;;;;;;;;;;;;;;;;;;;;
2021/10/22 04:47:34;;;;;;;17.48;8.73;;;;;;;10.71;97.23;97520.56;5087280;28;20122;-89
2021/10/22 04:50:01;;;;;;;31.08;11.02;;;;;;;11.13;96.28;97546.41;5065354;28;20051;-85
2021/10/22 04:52:26;;;;;;;23.58;14.27;;;;;;;11.03;94.41;97525.69;5090602;28;20083;-87
2021/10/22 04:54:54;;;;;;;23.02;12.68;;;;;;;11.18;93.59;97525.56;5061668;28;20048;-89
2021/10/22 04:57:19;;;;;;;24.67;11.82;;;;;;;11.29;92.26;97527.50;5065197;28;20111;-76
2021/10/22 04:59:45;;;;;;;21.40;10.85;;;;;;;11.46;90.76;97534.47;5066391;28;20032;-77
2021/10/22 05:02:10;;;;;;;24.67;12.93;;;;;;;11.50;90.98;97538.66;5076242;28;20028;-76
2021/10/22 05:04:36;;;;;;;43.35;15.52;;;;;;;11.46;92.33;97539.81;5063600;28;20100;-77
2021/10/22 05:07:20;;;;;;;42.72;15.38;;;;;;;11.43;92.32;97541.75;5058929;28;20560;-81
2021/10/22 05:09:46;;;;;;;44.25;17.80;;;;;;;11.17;93.85;97545.25;5078434;28;20039;-78
2021/10/22 05:12:12;;;;;;;49.08;20.00;;;;;;;11.21;95.58;97556.63;5061950;28;20046;-79
2021/10/22 05:14:38;;;;;;;50.50;20.42;;;;;;;11.05;95.07;97551.38;5074151;28;20024;-80
2021/10/22 05:17:04;;;;;;;44.30;18.70;;;;;;;10.89;97.27;97566.69;5065719;28;20028;-80
2021/10/22 05:19:30;;;;;;;47.38;19.10;;;;;;;11.06;97.75;97569.19;5075416;28;20505;-80
2021/10/22 05:21:59;;;;;;;38.33;15.55;;;;;;;10.91;97.66;97563.94;5076610;28;20100;-79
2021/10/22 05:24:25;;;;;;;42.15;15.63;;;;;;;10.85;98.98;97570.53;5073721;28;20379;-82
2021/10/22 05:26:51;;;;;;;42.25;22.48;;;;;;;10.83;100.00;97556.38;5071418;28;20034;-79
2021/10/22 05:29:18;;;;;;;44.72;17.30;;;;;;;11.08;99.14;97587.78;5056790;28;20059;-78
2021/10/22 05:34:58;;;;;;;53.10;19.73;;;;;;;12.97;85.82;97543.63;5070547;28;20498;-77
2021/10/22 05:37:38;;;;;;;77.33;38.27;;;;;;;15.21;77.14;97560.56;5070110;28;20027;-79
2021/10/22 05:40:05;;;;;;;40.20;14.15;;;;;;;17.32;63.74;97573.16;5055874;28;20508;-81
2021/10/22 05:42:30;;;;;;;83.60;39.83;;;;;;;18.95;57.42;97585.06;5067783;28;20105;-83
2021/10/22 05:44:56;;;;;;;24.48;9.75;;;;;;;20.72;51.11;97591.03;5071906;28;20487;-83
2021/10/22 05:47:22;;;;;;;29.63;9.93;;;;;;;21.76;47.47;97581.84;5072617;28;20558;-85
2021/10/22 05:49:47;;;;;;;19.58;12.13;;;;;;;23.40;43.65;97591.00;5091333;28;20415;-79
2021/10/22 05:52:13;;;;;;;26.02;10.70;;;;;;;24.49;40.73;97583.72;5070385;28;20027;-78
2021/10/22 05:54:39;;;;;;;29.88;10.73;;;;;;;25.51;38.56;97588.72;5059339;28;20039;-79
2021/10/22 05:57:05;;;;;;;27.25;14.30;;;;;;;25.98;37.18;97570.03;5065579;28;20023;-78
2021/10/22 05:59:30;;;;;;;43.28;21.92;;;;;;;26.38;35.84;97565.91;5066934;28;20024;-87
2021/10/22 06:13:19;;;;;;;55.08;32.85;;;;;;;24.73;38.38;97581.66;5105795;28;20059;-88
2021/10/22 06:15:45;;;;;;;55.17;28.85;;;;;;;24.79;37.92;97569.16;5022952;28;20132;-89
2021/10/22 06:18:13;;;;;;;73.00;42.30;;;;;;;24.69;39.63;97599.50;5044867;28;20475;-89
2021/10/22 06:21:01;;;;;;;44.28;20.63;;;;;;;25.86;37.00;97619.00;5044103;28;20086;-88
2021/10/22 06:26:10;;;;;;;40.22;21.73;;;;;;;27.73;34.63;97625.31;5077141;28;20108;-87
2021/10/22 06:28:36;;;;;;;45.65;22.00;;;;;;;28.07;33.22;97600.63;5043047;28;20040;-87
2021/10/22 06:31:02;;;;;;;53.65;22.60;;;;;;;28.24;32.95;97612.16;5043842;28;20052;-86
2021/10/22 06:33:31;;;;;;;64.95;31.13;;;;;;;28.06;33.42;97620.06;5048391;28;20067;-87
2021/10/22 06:35:57;;;;;;;71.78;27.52;;;;;;;28.60;32.82;97589.84;5054309;28;20554;-88
2021/10/22 06:38:24;;;;;;;77.00;32.92;;;;;;;29.38;31.16;97580.88;5048889;28;20055;-88
2021/10/22 06:40:53;;;;;;;67.82;26.20;;;;;;;29.00;31.79;97619.22;5044048;28;20020;-88
2021/10/22 06:43:25;;;;;;;82.47;31.90;;;;;;;29.34;31.79;97619.06;5061049;28;20040;-87
2021/10/22 06:46:09;;;;;;;80.40;31.85;;;;;;;29.56;31.40;97608.69;5059898;28;20029;-88
2021/10/22 06:48:45;;;;;;;64.03;27.95;;;;;;;30.31;30.28;97630.19;5048166;28;20126;-87
2021/10/22 06:51:12;;;;;;;72.07;29.83;;;;;;;30.92;29.03;97607.63;5064605;28;20506;-77
2021/10/22 06:53:38;;;;;;;76.57;33.90;;;;;;;30.84;29.59;97616.19;5046513;28;20035;-77
2021/10/22 06:56:05;;;;;;;178.15;72.97;;;;;;;30.50;29.70;97615.50;5047608;28;20033;-77
2021/10/22 06:58:31;;;;;;;76.60;32.95;;;;;;;30.58;29.93;97615.25;5049143;28;20052;-77
2021/10/22 07:00:59;;;;;;;20.02;10.90;;;;;;;31.18;28.92;97643.44;5058325;28;20039;-78
2021/10/22 07:03:26;;;;;;;31.20;11.75;;;;;;;30.24;29.92;97645.91;5063210;28;20081;-80
2021/10/22 07:08:22;;;;;;;16.38;7.93;;;;;;;30.68;29.52;97647.06;5075070;28;20024;-79
2021/10/22 07:10:48;;;;;;;7.55;5.88;;;;;;;30.42;29.62;97651.66;5045316;28;20025;-77
2021/10/22 07:13:14;;;;;;;29.20;8.45;;;;;;;29.70;31.44;97668.28;5071592;28;20031;-87
2021/10/22 07:15:41;;;;;;;17.73;6.55;;;;;;;30.47;29.87;97645.47;5045914;28;20080;-87
2021/10/22 07:18:06;;;;;;;12.77;6.03;;;;;;;29.83;30.24;97631.59;5055409;28;20028;-87
2021/10/22 07:20:34;;;;;;;9.15;6.30;;;;;;;29.93;30.68;97660.41;5062687;28;20031;-88
2021/10/22 07:23:05;;;;;;;12.25;5.60;;;;;;;30.30;30.12;97658.84;5052284;28;20090;-84
2021/10/22 07:25:32;;;;;;;9.23;5.93;;;;;;;30.64;29.46;97624.56;5050273;28;20034;-85
2021/10/22 07:27:59;;;;;;;13.23;6.05;;;;;;;30.20;29.51;97625.38;5045337;28;20025;-85
2021/10/22 07:30:25;;;;;;;13.68;5.82;;;;;;;29.20;30.72;97644.00;5049603;28;20115;-86
2021/10/22 07:32:50;;;;;;;9.93;5.35;;;;;;;29.93;29.81;97637.53;5051141;28;20052;-85
2021/10/22 07:35:17;;;;;;;7.47;5.20;;;;;;;31.27;28.28;97653.16;5055488;28;20055;-85
2021/10/22 07:37:43;;;;;;;8.32;5.38;;;;;;;31.45;27.26;97633.03;5065880;28;20505;-84
2021/10/22 07:40:09;;;;;;;10.15;5.82;;;;;;;31.91;27.84;97627.97;5055067;28;20113;-84
2021/10/22 07:42:38;;;;;;;25.83;12.63;;;;;;;31.56;27.95;97655.31;5059061;28;20020;-85
2021/10/22 07:45:06;;;;;;;7.72;5.32;;;;;;;31.95;27.69;97650.50;5043348;28;20521;-83
2021/10/22 07:47:34;;;;;;;17.23;5.70;;;;;;;32.40;27.27;97648.34;5047025;28;20498;-77
2021/10/22 07:50:00;;;;;;;15.77;6.32;;;;;;;33.26;25.47;97657.31;5037270;28;20028;-76
2021/10/22 07:52:28;;;;;;;18.13;8.00;;;;;;;33.24;25.96;97663.09;5040101;28;20402;-76
2021/10/22 07:54:54;;;;;;;14.82;7.45;;;;;;;31.89;27.11;97652.28;5043937;28;20121;-77
2021/10/22 07:57:23;;;;;;;15.02;10.60;;;;;;;31.93;27.38;97644.38;5053736;28;20402;-77
2021/10/22 07:59:49;;;;;;;15.48;8.18;;;;;;;32.26;27.52;97647.66;5033604;28;20024;-77
2021/10/22 08:02:16;;;;;;;20.90;8.40;;;;;;;33.32;25.76;97636.94;5039688;28;20032;-77
2021/10/22 08:04:45;;;;;;;10.55;6.38;;;;;;;33.57;25.37;97636.75;5057091;28;20024;-76
2021/10/22 08:07:12;;;;;;;9.20;7.00;;;;;;;32.97;25.98;97645.13;5056758;28;20046;-77
2021/10/22 08:09:39;;;;;;;13.40;6.72;;;;;;;32.13;26.47;97650.56;5060070;28;20020;-79
2021/10/22 08:12:06;;;;;;;21.27;7.68;;;;;;;31.28;28.02;97638.28;5061137;28;20029;-78
2021/10/22 08:14:35;;;;;;;11.57;6.75;;;;;;;31.06;27.93;97650.75;5043495;28;20047;-79
2021/10/22 08:17:03;;;;;;;13.23;7.45;;;;;;;30.57;28.67;97665.19;5046657;28;20032;-79
2021/10/22 08:19:28;;;;;;;16.38;7.00;;;;;;;30.34;29.79;97676.69;5071950;28;20024;-81
2021/10/22 08:24:35;;;;;;;11.43;6.47;;;;;;;29.66;30.05;97690.97;5062270;28;20468;-78
2021/10/22 08:27:01;;;;;;;22.33;14.80;;;;;;;29.45;30.75;97672.72;5059135;28;20498;-79
2021/10/22 08:29:27;;;;;;;7.95;5.97;;;;;;;28.85;31.06;97671.72;5047281;28;20094;-78
2021/10/22 08:31:53;;;;;;;8.95;6.15;;;;;;;28.81;31.92;97680.59;5044253;28;21584;-80
2021/10/22 08:34:19;;;;;;;11.15;5.45;;;;;;;28.46;31.83;97677.00;5053028;28;20549;-77
2021/10/22 08:36:46;;;;;;;21.05;6.53;;;;;;;28.89;31.25;97694.16;5042895;28;20098;-79
2021/10/22 08:39:12;;;;;;;14.70;6.53;;;;;;;28.95;31.91;97682.31;5044864;28;20689;-79
2021/10/22 08:41:39;;;;;;;11.77;6.40;;;;;;;29.04;30.89;97670.06;5040254;28;20031;-76
2021/10/22 08:44:05;;;;;;;13.15;4.95;;;;;;;29.87;30.09;97690.81;5033874;28;20041;-78
2021/10/22 08:46:33;;;;;;;18.48;13.25;;;;;;;29.40;30.86;97681.63;5047358;28;20075;-77
2021/10/22 08:49:03;;;;;;;11.70;5.97;;;;;;;28.98;31.23;97681.91;5039264;28;20038;-78
2021/10/22 08:51:28;;;;;;;17.60;6.50;;;;;;;28.97;31.84;97680.22;5067681;28;20445;-78
2021/10/22 08:53:55;;;;;;;19.52;7.28;;;;;;;28.42;31.65;97659.22;5082075;28;20020;-79
2021/10/22 08:56:21;;;;;;;10.73;5.50;;;;;;;28.64;32.07;97674.56;5050468;28;20067;-79
2021/10/22 08:58:47;;;;;;;9.52;5.30;;;;;;;28.65;31.66;97691.97;5050233;28;20036;-78
2021/10/22 09:01:14;;;;;;;10.60;5.53;;;;;;;28.05;33.46;97684.41;5033657;28;20032;-78
2021/10/22 09:03:40;;;;;;;10.15;6.43;;;;;;;27.61;33.17;97666.28;5040623;28;20044;-77
2021/10/22 09:06:14;;;;;;;8.27;4.95;;;;;;;27.41;34.28;97699.03;5065438;28;20051;-77
2021/10/22 09:08:42;;;;;;;16.90;6.72;;;;;;;27.15;34.47;97685.06;5051086;28;20119;-78
2021/10/22 09:11:25;;;;;;;14.82;6.85;;;;;;;26.95;35.37;97681.22;5037952;28;20024;-78
2021/10/22 09:14:04;;;;;;;11.60;5.60;;;;;;;27.31;33.84;97692.19;5061421;28;20135;-79
2021/10/22 09:16:30;;;;;;;15.57;6.47;;;;;;;27.42;34.04;97689.78;5075631;28;20516;-78
2021/10/22 09:18:58;;;;;;;11.65;6.18;;;;;;;26.96;34.31;97687.56;5063144;28;20551;-80
2021/10/22 09:21:31;;;;;;;11.75;6.30;;;;;;;26.80;34.87;97683.16;5059492;28;20032;-80
2021/10/22 09:24:19;;;;;;;9.65;5.07;;;;;;;27.16;33.80;97688.66;5083832;28;20483;-78
2021/10/22 09:26:56;;;;;;;9.65;5.80;;;;;;;27.02;33.96;97681.31;5077854;28;20105;-78
2021/10/22 09:29:25;;;;;;;9.98;5.88;;;;;;;27.34;33.77;97680.81;5061753;28;20040;-79
2021/10/22 09:31:56;;;;;;;9.18;5.10;;;;;;;27.77;32.97;97690.75;5082150;28;20410;-80
2021/10/22 09:34:36;;;;;;;15.82;4.93;;;;;;;28.41;32.01;97674.88;5082392;28;20107;-82
2021/10/22 09:37:10;;;;;;;16.42;6.30;;;;;;;28.97;31.46;97685.75;5081204;28;20080;-81
2021/10/22 09:39:37;;;;;;;8.02;5.15;;;;;;;29.06;31.02;97676.22;5064653;28;20027;-82
2021/10/22 09:42:09;;;;;;;8.90;4.88;;;;;;;28.25;32.11;97666.09;5068796;28;20043;-82
2021/10/22 09:44:38;;;;;;;12.95;5.20;;;;;;;28.51;31.70;97649.75;5054280;28;20410;-82
2021/10/22 09:47:04;;;;;;;111.47;88.38;;;;;;;28.64;31.17;97673.72;5079122;28;20034;-83
2021/10/22 09:49:42;;;;;;;7.90;4.72;;;;;;;28.34;31.88;97668.50;5082959;28;20115;-83
2021/10/22 09:52:25;;;;;;;19.88;7.50;;;;;;;29.19;30.49;97667.16;5083993;28;20491;-83
2021/10/22 09:55:12;;;;;;;8.98;5.40;;;;;;;29.53;29.73;97659.56;5072545;28;20479;-83
2021/10/22 09:57:39;;;;;;;9.18;7.55;;;;;;;29.63;30.21;97650.00;5066829;28;20107;-83
2021/10/22 10:00:10;;;;;;;7.68;5.32;;;;;;;29.75;30.03;97674.00;5082702;28;20032;-82
2021/10/22 10:02:37;;;;;;;14.03;5.90;;;;;;;29.92;29.97;97666.16;5082368;28;20410;-83
2021/10/22 10:05:06;;;;;;;8.00;4.68;;;;;;;29.72;29.89;97651.53;5085229;28;20379;-81
2021/10/22 10:07:35;;;;;;;5.30;4.63;;;;;;;29.81;29.89;97661.28;5061105;28;20024;-81
2021/10/22 10:10:02;;;;;;;9.15;5.05;;;;;;;29.78;29.54;97656.19;5072281;28;20410;-82
2021/10/22 10:12:27;;;;;;;5.45;4.55;;;;;;;28.91;31.11;97659.03;5057274;28;20755;-83
2021/10/22 10:14:53;;;;;;;8.02;5.00;;;;;;;28.44;32.14;97655.22;5057134;28;20047;-82
2021/10/22 10:17:24;;;;;;;11.60;5.03;;;;;;;28.18;32.48;97652.31;5077432;28;20114;-80
2021/10/22 10:19:51;;;;;;;11.48;4.90;;;;;;;28.73;30.94;97659.56;5061858;28;20074;-82
2021/10/22 10:22:19;;;;;;;8.52;5.10;;;;;;;29.66;29.92;97642.16;5082812;28;20493;-82
2021/10/22 10:24:47;;;;;;;6.20;4.55;;;;;;;30.46;28.58;97638.25;5062771;28;20086;-81
2021/10/22 10:27:44;;;;;;;7.72;6.55;;;;;;;31.01;28.16;97634.81;5069479;28;20108;-81
2021/10/22 10:30:14;;;;;;;8.18;5.03;;;;;;;32.46;27.08;97603.94;5066475;28;20504;-81
2021/10/22 10:32:52;;;;;;;8.30;5.47;;;;;;;33.53;24.97;97610.59;5056267;28;20066;-83
2021/10/22 10:35:18;;;;;;;9.13;5.82;;;;;;;33.54;24.93;97562.31;5083513;28;20544;-83
2021/10/22 10:37:54;;;;;;;16.48;6.50;;;;;;;35.06;23.61;97588.78;5060401;28;20035;-82
2021/10/22 10:40:28;;;;;;;6.53;4.80;;;;;;;36.12;22.51;97576.72;5063886;28;20024;-84
2021/10/22 10:42:56;;;;;;;12.93;5.32;;;;;;;36.77;21.47;97580.44;5075338;28;20411;-83
2021/10/22 10:45:23;;;;;;;15.07;5.13;;;;;;;37.46;20.89;97583.47;5073034;28;20028;-82
2021/10/22 10:47:50;;;;;;;9.23;4.65;;;;;;;37.63;20.30;97575.78;5073053;28;20043;-83
2021/10/22 10:50:24;;;;;;;9.93;4.65;;;;;;;38.06;20.01;97559.91;5074775;28;20105;-84
2021/10/22 10:52:52;;;;;;;12.77;5.72;;;;;;;38.29;19.82;97570.69;5062290;28;20043;-84
2021/10/22 10:55:33;;;;;;;7.25;4.50;;;;;;;38.60;19.31;97572.53;5068899;28;20031;-82
2021/10/22 10:58:08;;;;;;;10.23;5.47;;;;;;;38.43;19.78;97563.50;5083586;28;20561;-83
2021/10/22 11:00:39;;;;;;;6.43;4.22;;;;;;;37.31;20.51;97561.78;5081387;28;20035;-83
2021/10/22 11:03:05;;;;;;;;;;;;;;;36.82;20.94;97560.13;5072397;28;20126;-84
2021/10/22 11:05:43;;;;;;;42.85;5.90;;;;;;;35.65;21.71;97548.44;5087610;28;19908;-83
2021/10/22 11:08:15;;;;;;;5.82;4.63;;;;;;;34.94;22.27;97549.91;5083446;28;20109;-79
2021/10/22 11:11:13;;;;;;;6.85;5.07;;;;;;;34.82;22.69;97549.97;5094186;28;20027;-80
2021/10/22 11:13:42;;;;;;;8.15;4.63;;;;;;;34.03;23.69;97536.84;5091173;28;20035;-80
2021/10/22 11:16:28;;;;;;;6.00;4.60;;;;;;;34.18;23.02;97539.16;5102738;28;20380;-80
2021/10/22 11:18:55;;;;;;;6.38;4.93;;;;;;;33.69;23.43;97532.16;5074914;28;20028;-80
2021/10/22 11:21:25;;;;;;;11.15;4.97;;;;;;;32.54;24.90;97534.38;5070880;28;20039;-79
2021/10/22 11:23:52;;;;;;;8.00;5.10;;;;;;;32.68;24.81;97529.53;5064918;28;20082;-80
2021/10/22 11:26:22;;;;;;;6.00;4.40;;;;;;;32.42;24.82;97530.72;5064317;28;20063;-79
2021/10/22 11:28:59;;;;;;;7.70;4.50;;;;;;;32.35;25.39;97532.72;5064962;28;20490;-84
2021/10/22 11:31:41;;;;;;;8.35;4.60;;;;;;;33.28;24.01;97529.47;5067242;28;20020;-81
2021/10/22 11:34:12;;;;;;;;;;;;;;;33.54;23.58;97518.75;5079553;28;20017;-79
2021/10/22 11:36:38;;;;;;;6.63;4.70;;;;;;;33.13;24.06;97499.44;5064260;28;19928;-78
2021/10/22 11:39:17;;;;;;;10.40;4.97;;;;;;;33.49;24.28;97510.31;5078274;28;20032;-80
2021/10/22 11:41:43;;;;;;;10.05;5.25;;;;;;;32.71;24.80;97507.72;5065982;28;20039;-79
2021/10/22 11:44:09;;;;;;;7.28;4.55;;;;;;;31.84;25.83;97510.13;5057106;28;20028;-79
2021/10/22 11:46:48;;;;;;;13.93;5.20;;;;;;;31.64;26.48;97500.09;5066275;28;20120;-80
2021/10/22 11:49:27;;;;;;;10.18;5.00;;;;;;;31.57;26.48;97509.53;5064015;28;20028;-80
2021/10/22 11:51:54;;;;;;;9.48;4.63;;;;;;;31.32;26.87;97504.00;5065359;28;20516;-80
2021/10/22 11:54:21;;;;;;;7.47;4.65;;;;;;;30.76;27.20;97492.13;5065408;28;20452;-80
2021/10/22 11:56:46;;;;;;;8.55;4.35;;;;;;;29.97;27.87;97498.03;5066353;28;20044;-80